Time;durP1;ratioP1;P1;durP2;ratioP2;P2;SDS_P1;SDS_P2;PMS_P1;PMS_P2;Temp;Humidity;BMP_temperature;BMP_pressure;BME280_temperature;BME280_humidity;BME280_pressure;Samples;Min_cycle;Max_cycle;Signal;HPM_P1;HPM_P2
2022/12/28 00:01:16;;;;;;;4.03;1.73;;;5.80;99.90;;;;;;5101865;27;20120;-79
2022/12/28 00:03:42;;;;;;;5.63;2.40;;;5.50;99.90;;;;;;5118479;27;20086;-78
2022/12/28 00:06:08;;;;;;;5.28;1.92;;;5.80;99.90;;;;;;5136275;27;20086;-82
2022/12/28 00:08:34;;;;;;;4.72;2.20;;;5.60;99.90;;;;;;5118579;27;20043;-78
2022/12/28 00:11:05;;;;;;;6.65;2.50;;;5.60;99.90;;;;;;5101566;27;20043;-76
2022/12/28 00:13:32;;;;;;;8.15;2.05;;;5.50;99.90;;;;;;5118579;27;20448;-75
2022/12/28 00:16:06;;;;;;;4.68;2.80;;;5.50;99.90;;;;;;5136393;27;20043;-77
2022/12/28 00:18:36;;;;;;;6.03;2.40;;;5.60;99.90;;;;;;5117767;27;20062;-78
2022/12/28 00:21:03;;;;;;;5.88;2.50;;;5.40;99.90;;;;;;5118438;27;20090;-80
2022/12/28 00:23:30;;;;;;;5.13;2.38;;;5.40;99.90;;;;;;5118330;27;20041;-77
2022/12/28 00:26:04;;;;;;;4.78;2.08;;;5.70;99.90;;;;;;5118253;27;20471;-79
2022/12/28 00:28:30;;;;;;;6.80;2.33;;;5.60;99.90;;;;;;5118339;27;20126;-77
2022/12/28 00:30:56;;;;;;;4.65;2.42;;;5.80;99.90;;;;;;5118217;27;20518;-79
2022/12/28 00:33:22;;;;;;;7.57;2.72;;;5.70;99.90;;;;;;5135898;27;20046;-77
2022/12/28 00:35:59;;;;;;;5.50;2.50;;;5.70;99.90;;;;;;5084213;27;20047;-78
2022/12/28 00:38:25;;;;;;;6.65;2.97;;;5.40;99.90;;;;;;5117364;27;20039;-77
2022/12/28 00:40:51;;;;;;;6.32;2.58;;;5.60;99.90;;;;;;5117854;27;20051;-78
2022/12/28 00:43:18;;;;;;;6.28;2.38;;;5.70;99.90;;;;;;5117610;27;20043;-78
2022/12/28 00:45:45;;;;;;;7.57;2.60;;;5.70;99.90;;;;;;5117745;27;20129;-77
2022/12/28 00:48:11;;;;;;;4.20;2.33;;;5.60;99.90;;;;;;5100926;27;20065;-78
2022/12/28 00:50:36;;;;;;;5.05;2.53;;;5.60;99.90;;;;;;5118322;27;20046;-78
2022/12/28 00:53:02;;;;;;;5.95;2.83;;;5.60;99.90;;;;;;5066810;27;20055;-78
2022/12/28 00:55:28;;;;;;;4.57;2.65;;;5.40;99.90;;;;;;5100841;27;20131;-77
2022/12/28 00:57:53;;;;;;;5.63;2.53;;;5.60;99.90;;;;;;5117716;27;20563;-78
2022/12/28 01:00:19;;;;;;;7.13;3.17;;;5.70;99.90;;;;;;5100488;27;20062;-78
2022/12/28 01:02:45;;;;;;;7.20;2.83;;;5.40;99.90;;;;;;5117571;27;20097;-78
2022/12/28 01:05:11;;;;;;;8.60;2.42;;;5.40;99.90;;;;;;5083612;27;20049;-77
2022/12/28 01:07:36;;;;;;;7.32;2.75;;;5.70;99.90;;;;;;5099764;27;20043;-77
2022/12/28 01:10:02;;;;;;;6.63;2.75;;;5.50;99.90;;;;;;5117621;27;20047;-77
2022/12/28 01:12:28;;;;;;;5.38;2.60;;;5.40;99.90;;;;;;5116922;27;20043;-77
2022/12/28 01:14:54;;;;;;;4.75;2.50;;;5.40;99.90;;;;;;5100158;27;20422;-76
2022/12/28 01:17:20;;;;;;;6.05;2.67;;;5.60;99.90;;;;;;5117430;27;20046;-78
2022/12/28 01:19:45;;;;;;;4.50;2.80;;;5.50;99.90;;;;;;5116953;27;20050;-77
2022/12/28 01:22:13;;;;;;;6.22;2.20;;;5.40;99.90;;;;;;5117750;27;20055;-76
2022/12/28 01:24:39;;;;;;;6.22;2.78;;;5.60;99.90;;;;;;5117600;27;20055;-77
2022/12/28 01:27:04;;;;;;;6.60;2.78;;;5.50;99.90;;;;;;5117142;27;20110;-76
2022/12/28 01:29:31;;;;;;;5.63;2.65;;;5.60;99.90;;;;;;5099277;27;20043;-76
2022/12/28 01:31:57;;;;;;;6.65;2.90;;;5.40;99.90;;;;;;5083361;27;20043;-77
2022/12/28 01:34:22;;;;;;;3.30;2.22;;;5.50;99.90;;;;;;5100172;27;20051;-76
2022/12/28 01:36:48;;;;;;;5.18;2.58;;;5.80;99.90;;;;;;5116344;27;20039;-77
2022/12/28 01:39:14;;;;;;;4.68;1.92;;;5.70;99.90;;;;;;5100223;27;20050;-77
2022/12/28 01:41:40;;;;;;;5.65;2.35;;;5.60;99.90;;;;;;5083034;27;20049;-74
2022/12/28 01:44:06;;;;;;;8.20;2.92;;;6.00;99.90;;;;;;5116588;27;20054;-75
2022/12/28 01:47:01;;;;;;;5.63;2.35;;;5.50;99.90;;;;;;5099713;27;20053;-75
2022/12/28 01:49:32;;;;;;;5.93;2.65;;;5.50;99.90;;;;;;5099547;27;20051;-75
2022/12/28 01:52:06;;;;;;;4.43;2.40;;;5.70;99.90;;;;;;5116442;27;20072;-75
2022/12/28 01:54:42;;;;;;;5.80;2.38;;;5.50;99.90;;;;;;5116316;27;20406;-74
2022/12/28 01:57:08;;;;;;;3.90;2.53;;;5.50;99.90;;;;;;5116438;27;20486;-76
2022/12/28 01:59:39;;;;;;;7.65;2.67;;;5.80;99.90;;;;;;5099726;27;20058;-76
2022/12/28 02:02:05;;;;;;;5.63;3.35;;;5.70;99.90;;;;;;5099261;27;20092;-75
2022/12/28 02:04:30;;;;;;;5.72;2.63;;;5.60;99.90;;;;;;5082643;28;20047;-76
2022/12/28 02:06:56;;;;;;;4.63;2.92;;;5.50;99.90;;;;;;5098633;27;20050;-75
2022/12/28 02:09:32;;;;;;;7.05;3.40;;;5.60;99.90;;;;;;5134397;27;20047;-77
2022/12/28 02:11:59;;;;;;;8.68;2.75;;;5.50;99.90;;;;;;5116414;28;20091;-78
2022/12/28 02:14:25;;;;;;;6.30;2.92;;;5.70;99.90;;;;;;5116689;28;20195;-79
2022/12/28 02:16:53;;;;;;;6.90;3.22;;;5.90;99.90;;;;;;5116435;28;20538;-80
2022/12/28 02:19:25;;;;;;;9.45;3.20;;;5.50;99.90;;;;;;5116350;28;20052;-80
2022/12/28 02:22:19;;;;;;;4.15;2.83;;;5.70;99.90;;;;;;5116409;28;20039;-77
2022/12/28 02:24:53;;;;;;;5.97;3.20;;;5.60;99.90;;;;;;5099280;28;20047;-78
2022/12/28 02:27:37;;;;;;;7.63;3.50;;;5.50;99.90;;;;;;5099203;28;20047;-79
2022/12/28 02:30:09;;;;;;;5.70;3.00;;;5.60;99.90;;;;;;5099172;28;20058;-77
2022/12/28 02:32:54;;;;;;;6.25;3.33;;;5.50;99.90;;;;;;5099278;28;20350;-78
2022/12/28 02:35:41;;;;;;;9.13;3.38;;;5.50;99.90;;;;;;5099429;28;20146;-78
2022/12/28 02:38:13;;;;;;;8.45;3.10;;;5.40;99.90;;;;;;5115656;28;20061;-77
2022/12/28 02:40:47;;;;;;;7.68;2.83;;;5.60;99.90;;;;;;5116734;27;20047;-77
2022/12/28 02:43:13;;;;;;;9.23;3.42;;;5.80;99.90;;;;;;5103832;27;20043;-74
2022/12/28 02:51:52;;;;;;;7.00;3.03;;;5.60;99.90;;;;;;5120235;27;20055;-75
2022/12/28 02:57:52;;;;;;;5.43;3.43;;;5.70;99.90;;;;;;5119851;27;20075;-74
2022/12/28 03:00:21;;;;;;;4.35;3.10;;;5.60;99.90;;;;;;5119906;27;20273;-76
2022/12/28 03:03:05;;;;;;;5.95;3.38;;;5.60;99.90;;;;;;5138236;27;20082;-77
2022/12/28 03:09:00;;;;;;;6.18;3.60;;;5.60;99.90;;;;;;5119354;27;20050;-79
2022/12/28 03:11:42;;;;;;;5.40;3.53;;;5.80;99.90;;;;;;5103163;27;20055;-77
2022/12/28 03:14:15;;;;;;;6.55;3.58;;;5.70;99.90;;;;;;5102695;27;20040;-75
2022/12/28 03:31:07;;;;;;;5.97;3.00;;;5.90;99.90;;;;;;5119344;27;20058;-75
2022/12/28 03:33:38;;;;;;;5.72;3.00;;;5.70;99.90;;;;;;5119219;27;20043;-74
2022/12/28 03:36:23;;;;;;;3.72;2.95;;;5.70;99.90;;;;;;5137404;27;20395;-74
2022/12/28 03:39:17;;;;;;;6.85;3.10;;;5.70;99.90;;;;;;5136566;27;20046;-77
2022/12/28 03:44:45;;;;;;;5.68;3.22;;;5.80;99.90;;;;;;5137247;27;20085;-74
2022/12/28 03:47:12;;;;;;;5.63;3.05;;;6.00;99.90;;;;;;5137006;27;20047;-72
2022/12/28 03:49:39;;;;;;;5.53;2.83;;;5.70;99.90;;;;;;5101934;27;20055;-75
2022/12/28 03:52:06;;;;;;;4.97;3.35;;;5.70;99.90;;;;;;5136070;27;20065;-75
2022/12/28 03:54:31;;;;;;;4.15;3.15;;;6.10;99.90;;;;;;5101233;27;20066;-74
2022/12/28 03:56:57;;;;;;;4.28;3.38;;;6.00;99.90;;;;;;5136947;27;20382;-78
2022/12/28 03:59:23;;;;;;;4.18;3.10;;;6.10;99.90;;;;;;5118750;27;20092;-74
2022/12/28 04:01:48;;;;;;;4.57;3.00;;;5.80;99.90;;;;;;5101589;27;20082;-74
2022/12/28 04:04:14;;;;;;;4.20;3.15;;;5.80;99.90;;;;;;5101738;27;20050;-74
2022/12/28 04:06:40;;;;;;;5.07;3.60;;;5.90;99.90;;;;;;5136266;27;20078;-76
2022/12/28 04:09:06;;;;;;;6.20;3.17;;;6.20;99.90;;;;;;5101643;27;20039;-76
2022/12/28 04:11:31;;;;;;;4.90;3.42;;;5.90;99.90;;;;;;5118462;27;20086;-76
2022/12/28 04:13:57;;;;;;;5.78;3.25;;;6.10;99.90;;;;;;5101160;27;20043;-75
2022/12/28 04:16:23;;;;;;;5.82;3.28;;;6.20;99.90;;;;;;5118370;27;20129;-75
2022/12/28 04:18:48;;;;;;;6.22;3.90;;;6.10;99.90;;;;;;5136501;27;20428;-74
2022/12/28 04:21:15;;;;;;;7.72;3.65;;;6.30;99.90;;;;;;5101403;27;20082;-75
2022/12/28 04:23:41;;;;;;;7.97;3.58;;;6.00;99.90;;;;;;5118829;27;20055;-75
2022/12/28 04:26:12;;;;;;;5.53;3.17;;;6.20;99.90;;;;;;5101093;27;20055;-75
2022/12/28 04:28:39;;;;;;;5.05;3.13;;;6.10;99.90;;;;;;5136663;27;20407;-74
2022/12/28 04:31:07;;;;;;;5.25;3.15;;;6.10;99.90;;;;;;5118212;27;20055;-75
2022/12/28 04:33:34;;;;;;;6.43;3.10;;;6.10;99.90;;;;;;5136737;27;20484;-75
2022/12/28 04:36:09;;;;;;;5.30;2.67;;;6.10;99.90;;;;;;5118559;27;20047;-77
2022/12/28 04:38:36;;;;;;;5.20;2.67;;;6.10;99.90;;;;;;5100811;27;20046;-74
2022/12/28 04:41:03;;;;;;;4.65;3.15;;;6.40;99.90;;;;;;5084251;27;20126;-74
2022/12/28 04:43:29;;;;;;;4.00;2.90;;;6.10;99.90;;;;;;5100969;27;20449;-75
2022/12/28 04:46:09;;;;;;;5.00;2.53;;;6.30;99.90;;;;;;5101158;27;20088;-75
2022/12/28 04:48:35;;;;;;;4.40;2.28;;;6.30;99.90;;;;;;5117785;27;20043;-76
2022/12/28 04:51:21;;;;;;;3.35;2.13;;;6.20;99.90;;;;;;5100809;27;20113;-76
2022/12/28 04:53:48;;;;;;;3.85;2.33;;;6.20;99.90;;;;;;5135705;27;20063;-77
2022/12/28 04:56:16;;;;;;;5.05;2.60;;;6.30;99.90;;;;;;5117371;27;20039;-75
2022/12/28 04:58:42;;;;;;;4.03;2.50;;;6.30;99.90;;;;;;5118350;27;20108;-78
2022/12/28 05:01:13;;;;;;;3.78;2.03;;;6.30;99.90;;;;;;5117771;27;20123;-76
2022/12/28 05:03:40;;;;;;;3.45;2.17;;;6.50;99.90;;;;;;5135808;27;20073;-75
2022/12/28 05:06:10;;;;;;;5.13;2.10;;;6.50;99.90;;;;;;5117425;27;20039;-76
2022/12/28 05:08:36;;;;;;;2.95;2.10;;;6.40;99.90;;;;;;5134861;27;20126;-77
2022/12/28 05:11:04;;;;;;;3.40;2.08;;;6.40;99.90;;;;;;5135467;27;20478;-77
2022/12/28 05:13:31;;;;;;;4.28;1.88;;;6.30;99.90;;;;;;5135747;27;20424;-76
2022/12/28 05:16:06;;;;;;;2.85;1.90;;;6.70;99.90;;;;;;5117475;27;20398;-75
2022/12/28 05:18:32;;;;;;;3.17;1.70;;;6.40;99.90;;;;;;5117633;27;20047;-76
2022/12/28 05:21:04;;;;;;;2.35;1.60;;;6.40;99.90;;;;;;5117343;27;20043;-77
2022/12/28 05:23:31;;;;;;;3.50;2.05;;;6.50;99.90;;;;;;5117556;27;20047;-76
2022/12/28 05:25:57;;;;;;;2.85;1.92;;;6.40;99.90;;;;;;5135192;27;20487;-76
2022/12/28 05:28:24;;;;;;;2.38;1.95;;;6.40;99.90;;;;;;5116895;27;20043;-76
2022/12/28 05:30:50;;;;;;;3.13;2.10;;;6.30;99.90;;;;;;5117170;27;20047;-77
2022/12/28 05:33:16;;;;;;;3.45;2.00;;;6.40;99.90;;;;;;5099970;27;20135;-76
2022/12/28 05:35:42;;;;;;;3.33;2.45;;;6.50;99.90;;;;;;5135017;27;20078;-75
2022/12/28 05:38:08;;;;;;;2.72;2.17;;;6.50;99.90;;;;;;5099343;27;20046;-76
2022/12/28 05:40:33;;;;;;;2.45;2.10;;;6.70;99.90;;;;;;5099875;27;20043;-75
2022/12/28 05:42:59;;;;;;;4.47;2.90;;;6.50;99.90;;;;;;5116781;27;20047;-74
2022/12/28 05:45:25;;;;;;;4.03;2.85;;;6.60;99.90;;;;;;5116504;27;20043;-75
2022/12/28 05:47:52;;;;;;;4.82;3.08;;;6.80;99.90;;;;;;5134822;27;20046;-74
2022/12/28 05:50:18;;;;;;;3.53;2.40;;;6.80;99.90;;;;;;5134608;27;20055;-75
2022/12/28 05:52:44;;;;;;;3.90;2.63;;;6.90;99.90;;;;;;5099097;27;20039;-76
2022/12/28 05:55:10;;;;;;;4.00;2.90;;;6.70;99.90;;;;;;5116348;27;20063;-74
2022/12/28 05:57:36;;;;;;;3.95;2.85;;;6.70;99.90;;;;;;5116591;27;20399;-75
2022/12/28 06:00:02;;;;;;;3.95;2.90;;;6.80;99.90;;;;;;5134597;27;20086;-76
2022/12/28 06:02:28;;;;;;;4.47;3.47;;;6.80;99.90;;;;;;5134739;27;20522;-75
2022/12/28 06:04:54;;;;;;;4.63;3.13;;;6.90;99.90;;;;;;5116179;27;20138;-74
2022/12/28 06:07:19;;;;;;;4.30;3.65;;;6.80;99.90;;;;;;5099063;27;20145;-75
2022/12/28 06:09:45;;;;;;;4.95;3.55;;;6.80;99.90;;;;;;5134599;27;20502;-76
2022/12/28 06:12:11;;;;;;;5.35;3.30;;;7.00;99.90;;;;;;5116186;28;20050;-75
2022/12/28 06:14:37;;;;;;;5.88;3.35;;;6.90;99.90;;;;;;5116212;28;20051;-75
2022/12/28 06:17:02;;;;;;;5.38;3.60;;;7.00;99.90;;;;;;5115752;28;20131;-75
2022/12/28 06:19:28;;;;;;;4.47;3.08;;;6.90;99.90;;;;;;5099542;28;20477;-76
2022/12/28 06:21:54;;;;;;;5.75;4.40;;;7.20;99.90;;;;;;5134439;28;20654;-76
2022/12/28 06:24:19;;;;;;;5.15;4.35;;;7.10;99.90;;;;;;5082869;28;20040;-74
2022/12/28 06:26:45;;;;;;;6.10;4.68;;;7.00;99.90;;;;;;5116073;28;20049;-75
2022/12/28 06:29:11;;;;;;;7.45;5.43;;;6.90;99.90;;;;;;5116213;28;20121;-77
2022/12/28 06:31:39;;;;;;;8.43;6.05;;;7.10;99.90;;;;;;5082666;28;20047;-76
2022/12/28 06:34:07;;;;;;;9.20;5.65;;;7.30;99.90;;;;;;5115849;28;20040;-75
2022/12/28 06:36:36;;;;;;;8.32;5.45;;;7.10;99.90;;;;;;5116262;28;20043;-75
2022/12/28 06:39:03;;;;;;;9.43;6.00;;;7.00;99.90;;;;;;5115614;28;20086;-75
2022/12/28 06:41:30;;;;;;;9.35;6.40;;;7.40;99.90;;;;;;5099165;28;20043;-76
2022/12/28 06:43:56;;;;;;;8.98;6.05;;;7.20;99.90;;;;;;5115875;28;20051;-75
2022/12/28 06:46:24;;;;;;;7.32;5.40;;;7.20;99.90;;;;;;5098881;28;20070;-76
2022/12/28 06:48:50;;;;;;;8.52;5.47;;;7.20;99.90;;;;;;5115962;28;20047;-78
2022/12/28 06:51:17;;;;;;;10.85;6.32;;;7.30;99.90;;;;;;5116098;28;20096;-74
2022/12/28 06:53:44;;;;;;;7.72;5.78;;;7.40;99.90;;;;;;5098689;28;20055;-76
2022/12/28 06:56:15;;;;;;;8.13;5.85;;;7.30;99.90;;;;;;5099009;28;20627;-77
2022/12/28 06:58:41;;;;;;;6.60;5.18;;;7.30;99.90;;;;;;5116089;28;20075;-74
2022/12/28 07:01:09;;;;;;;8.68;5.30;;;7.30;99.90;;;;;;5115767;28;20055;-72
2022/12/28 07:03:35;;;;;;;8.52;5.38;;;7.50;99.90;;;;;;5098767;28;20177;-72
2022/12/28 07:06:02;;;;;;;8.35;5.70;;;7.40;99.90;;;;;;5133983;28;20130;-74
2022/12/28 07:08:28;;;;;;;7.00;5.10;;;7.30;99.90;;;;;;5115264;28;20126;-74
2022/12/28 07:10:54;;;;;;;9.43;6.18;;;7.50;99.90;;;;;;5115856;28;20173;-74
2022/12/28 07:13:20;;;;;;;5.82;4.25;;;7.50;99.90;;;;;;5115664;28;20505;-72
2022/12/28 07:15:46;;;;;;;10.35;5.97;;;7.50;99.90;;;;;;5115628;28;20130;-74
2022/12/28 07:18:12;;;;;;;8.45;5.82;;;7.50;99.90;;;;;;5115676;28;20066;-75
2022/12/28 07:20:37;;;;;;;8.35;5.97;;;7.50;99.90;;;;;;5098804;28;20138;-74
2022/12/28 07:23:03;;;;;;;5.43;4.38;;;7.60;99.90;;;;;;5099193;28;20483;-73
2022/12/28 07:25:29;;;;;;;5.15;4.00;;;7.70;99.90;;;;;;5133675;28;20047;-72
2022/12/28 07:27:55;;;;;;;7.95;4.93;;;7.70;99.90;;;;;;5099766;27;20062;-73
2022/12/28 07:30:21;;;;;;;6.90;4.75;;;7.60;99.90;;;;;;5118988;27;20430;-73
2022/12/28 07:32:46;;;;;;;7.55;4.45;;;7.70;99.90;;;;;;5137020;27;20434;-74
2022/12/28 07:35:12;;;;;;;7.78;4.55;;;7.70;99.90;;;;;;5118778;27;20039;-74
2022/12/28 07:37:38;;;;;;;10.07;6.43;;;7.70;99.90;;;;;;5101756;27;20054;-74
2022/12/28 07:40:04;;;;;;;6.75;5.38;;;7.60;99.90;;;;;;5101967;27;20040;-75
2022/12/28 07:42:30;;;;;;;6.15;4.72;;;7.60;99.90;;;;;;5137271;27;20047;-75
2022/12/28 07:44:55;;;;;;;8.07;5.38;;;7.70;99.90;;;;;;5118747;27;20402;-74
2022/12/28 07:47:21;;;;;;;9.13;5.63;;;7.70;99.90;;;;;;5101807;27;20185;-75
2022/12/28 07:49:47;;;;;;;9.45;5.78;;;7.80;99.90;;;;;;5118906;27;20054;-75
2022/12/28 07:52:13;;;;;;;9.60;6.07;;;7.70;99.90;;;;;;5101992;27;20047;-74
2022/12/28 07:54:38;;;;;;;9.32;5.80;;;7.70;99.90;;;;;;5118407;27;20051;-74
2022/12/28 07:57:04;;;;;;;9.82;5.78;;;7.80;99.90;;;;;;5136736;27;20055;-75
2022/12/28 07:59:30;;;;;;;10.70;6.45;;;7.80;99.90;;;;;;5136361;27;20047;-74
2022/12/28 08:01:55;;;;;;;8.68;6.43;;;7.80;99.90;;;;;;5101668;27;20479;-76
2022/12/28 08:04:21;;;;;;;9.73;6.53;;;7.80;99.90;;;;;;5136900;27;20076;-75
2022/12/28 08:06:47;;;;;;;9.15;6.30;;;7.80;99.90;;;;;;5118707;27;20168;-74
2022/12/28 08:09:14;;;;;;;10.93;6.78;;;7.90;99.90;;;;;;5117895;27;20043;-73
2022/12/28 08:11:42;;;;;;;8.88;6.28;;;7.80;99.90;;;;;;5136639;27;20035;-74
2022/12/28 08:14:09;;;;;;;7.93;6.32;;;7.90;99.90;;;;;;5136358;27;20043;-76
2022/12/28 08:16:38;;;;;;;7.93;6.43;;;7.90;99.90;;;;;;5136374;27;20077;-76
2022/12/28 08:19:04;;;;;;;9.32;6.45;;;8.00;99.90;;;;;;5137225;27;20046;-75
2022/12/28 08:21:32;;;;;;;10.30;6.82;;;8.00;99.90;;;;;;5101396;27;20047;-76
2022/12/28 08:23:58;;;;;;;9.10;7.05;;;8.00;99.90;;;;;;5136332;27;20039;-74
2022/12/28 08:26:27;;;;;;;10.52;6.30;;;8.00;99.90;;;;;;5101385;27;20047;-76
2022/12/28 08:28:55;;;;;;;8.20;6.45;;;8.00;99.90;;;;;;5118129;27;20406;-75
2022/12/28 08:31:24;;;;;;;7.78;5.82;;;8.20;99.90;;;;;;5137123;27;20035;-74
2022/12/28 08:33:53;;;;;;;7.00;5.60;;;8.10;99.90;;;;;;5100913;27;20039;-77
2022/12/28 08:36:19;;;;;;;6.43;5.07;;;8.10;99.90;;;;;;5118326;27;20096;-76
2022/12/28 08:38:45;;;;;;;9.45;5.90;;;8.30;99.90;;;;;;5096601;28;20055;-76
2022/12/28 08:41:23;;;;;;;10.05;6.00;;;8.10;99.90;;;;;;5114480;28;20403;-75
2022/12/28 08:43:50;;;;;;;7.95;5.85;;;8.10;99.90;;;;;;5115650;28;20394;-77
2022/12/28 08:46:18;;;;;;;9.18;6.68;;;8.20;99.90;;;;;;5097874;28;20152;-76
2022/12/28 08:48:46;;;;;;;10.98;7.25;;;8.20;99.90;;;;;;5115734;28;20085;-75
2022/12/28 08:51:35;;;;;;;9.07;6.22;;;8.30;99.90;;;;;;5097465;28;20137;-75
2022/12/28 08:54:01;;;;;;;10.45;6.70;;;8.20;99.90;;;;;;5113946;28;20059;-75
2022/12/28 08:56:31;;;;;;;10.25;7.00;;;8.20;99.90;;;;;;5114386;28;20051;-76
2022/12/28 08:58:57;;;;;;;10.10;6.93;;;8.10;99.90;;;;;;5115343;28;20051;-75
2022/12/28 09:01:32;;;;;;;11.68;7.82;;;8.20;99.90;;;;;;5097387;28;20482;-77
2022/12/28 09:03:59;;;;;;;9.02;6.95;;;8.20;99.90;;;;;;5097412;28;20047;-74
2022/12/28 09:06:29;;;;;;;11.23;7.35;;;8.10;99.90;;;;;;5063966;28;20130;-76
2022/12/28 09:08:57;;;;;;;10.32;7.13;;;8.20;99.90;;;;;;5114995;28;20120;-75
2022/12/28 09:11:23;;;;;;;8.63;5.65;;;8.20;99.90;;;;;;5113870;28;20048;-76
2022/12/28 09:13:49;;;;;;;8.95;5.35;;;8.30;99.90;;;;;;5124888;27;20043;-75
2022/12/28 09:16:17;;;;;;;10.73;6.20;;;8.20;99.90;;;;;;5134811;27;20039;-77
2022/12/28 09:18:44;;;;;;;12.70;6.43;;;8.30;99.90;;;;;;5114079;27;20054;-75
2022/12/28 09:21:19;;;;;;;10.18;6.35;;;8.20;99.90;;;;;;5082774;27;20130;-75
2022/12/28 09:23:45;;;;;;;8.82;5.55;;;8.30;99.90;;;;;;5114167;27;20518;-74
2022/12/28 09:26:14;;;;;;;7.28;5.50;;;8.30;99.90;;;;;;5134595;27;20575;-74
2022/12/28 09:28:48;;;;;;;9.68;5.47;;;8.20;99.90;;;;;;5134678;27;20478;-72
2022/12/28 09:31:14;;;;;;;8.25;5.72;;;8.20;99.90;;;;;;5116606;27;20035;-77
2022/12/28 09:33:59;;;;;;;6.43;4.75;;;8.20;99.90;;;;;;5116069;27;20542;-76
2022/12/28 09:36:45;;;;;;;7.70;4.55;;;8.30;99.90;;;;;;5132407;27;20039;-75
2022/12/28 09:39:15;;;;;;;5.82;4.20;;;8.30;99.90;;;;;;5111891;27;20111;-75
2022/12/28 09:41:56;;;;;;;5.97;4.50;;;8.30;99.90;;;;;;5114302;27;20035;-75
2022/12/28 09:44:28;;;;;;;5.53;3.67;;;8.30;99.90;;;;;;5116118;27;20046;-76
2022/12/28 09:47:07;;;;;;;5.38;3.97;;;8.30;99.90;;;;;;5116166;27;20078;-76
2022/12/28 09:49:45;;;;;;;6.95;4.40;;;8.30;99.90;;;;;;5097705;27;20376;-76
2022/12/28 09:52:14;;;;;;;6.05;3.80;;;8.30;99.90;;;;;;5131503;27;20489;-76
2022/12/28 09:54:40;;;;;;;7.97;4.40;;;8.30;99.90;;;;;;5134084;27;20055;-76
2022/12/28 09:57:31;;;;;;;5.43;4.05;;;8.30;99.90;;;;;;5134024;27;20039;-77
2022/12/28 09:59:57;;;;;;;6.25;4.40;;;8.40;99.90;;;;;;5115261;28;20055;-75
2022/12/28 10:02:28;;;;;;;7.03;4.60;;;8.30;99.90;;;;;;5096306;27;20048;-76
2022/12/28 10:04:54;;;;;;;5.13;4.18;;;8.30;99.90;;;;;;5115434;27;20081;-76
2022/12/28 10:07:20;;;;;;;4.82;3.40;;;8.50;99.90;;;;;;5133325;27;20070;-77
2022/12/28 10:09:47;;;;;;;4.72;3.40;;;8.30;99.90;;;;;;5115752;27;20043;-76
2022/12/28 10:12:17;;;;;;;3.88;2.50;;;8.40;99.90;;;;;;5115807;27;20122;-76
2022/12/28 10:14:47;;;;;;;4.55;3.05;;;8.40;99.90;;;;;;5112810;28;20035;-75
2022/12/28 10:17:14;;;;;;;3.10;2.30;;;8.50;99.90;;;;;;5133654;28;20031;-76
2022/12/28 10:19:45;;;;;;;4.00;2.20;;;8.40;99.90;;;;;;5098392;28;20085;-76
2022/12/28 10:22:15;;;;;;;4.18;2.38;;;8.40;99.90;;;;;;5133995;28;20123;-76
2022/12/28 10:24:42;;;;;;;4.57;2.17;;;8.50;99.90;;;;;;5098719;28;20039;-76
2022/12/28 10:27:23;;;;;;;3.88;2.33;;;8.50;99.90;;;;;;5089714;28;20112;-77
2022/12/28 10:29:53;;;;;;;4.63;2.22;;;8.50;99.90;;;;;;5113426;28;20122;-75
2022/12/28 10:32:19;;;;;;;4.70;2.63;;;8.50;99.90;;;;;;5133863;28;20477;-75
2022/12/28 10:35:00;;;;;;;4.28;2.75;;;8.50;99.90;;;;;;5113939;28;20475;-76
2022/12/28 10:37:30;;;;;;;5.45;2.65;;;8.50;99.90;;;;;;5130757;28;20074;-74
2022/12/28 10:40:00;;;;;;;5.47;3.50;;;8.50;99.90;;;;;;5115494;28;20055;-74
2022/12/28 10:42:31;;;;;;;6.55;3.30;;;8.50;99.90;;;;;;5112932;28;20088;-75
2022/12/28 10:45:03;;;;;;;4.90;3.83;;;8.50;99.90;;;;;;5133767;28;20046;-76
2022/12/28 10:47:34;;;;;;;7.32;3.97;;;8.50;99.90;;;;;;5113580;28;20067;-74
2022/12/28 10:49:59;;;;;;;5.00;3.50;;;8.50;99.90;;;;;;5134033;28;20492;-74
2022/12/28 10:52:26;;;;;;;9.68;3.85;;;8.60;99.90;;;;;;5133848;28;20053;-75
2022/12/28 10:54:52;;;;;;;6.22;3.17;;;8.60;99.90;;;;;;5115739;28;20051;-75
2022/12/28 10:57:26;;;;;;;6.70;4.30;;;8.60;99.90;;;;;;5115914;28;20047;-76
2022/12/28 10:59:52;;;;;;;4.63;3.50;;;8.60;99.90;;;;;;5116245;28;20055;-76
2022/12/28 11:02:34;;;;;;;5.25;3.58;;;8.60;99.90;;;;;;5083993;27;20047;-75
2022/12/28 11:05:03;;;;;;;7.63;4.35;;;8.60;99.90;;;;;;5120126;27;20047;-75
2022/12/28 11:07:34;;;;;;;5.72;4.15;;;8.60;99.90;;;;;;5137555;27;20047;-75
2022/12/28 11:10:27;;;;;;;7.53;3.83;;;8.70;99.90;;;;;;5119926;27;20052;-73
2022/12/28 11:12:55;;;;;;;5.80;4.00;;;8.70;99.90;;;;;;5138339;27;20376;-73
2022/12/28 11:15:24;;;;;;;5.05;3.78;;;8.70;99.90;;;;;;5137833;27;20058;-74
2022/12/28 11:17:56;;;;;;;5.90;3.42;;;8.70;99.90;;;;;;5119594;27;20047;-74
2022/12/28 11:20:37;;;;;;;4.20;3.25;;;8.70;99.90;;;;;;5102713;27;20051;-72
2022/12/28 11:23:07;;;;;;;4.05;2.90;;;8.70;99.90;;;;;;5137822;27;20542;-74
2022/12/28 11:25:35;;;;;;;3.75;2.85;;;8.80;99.90;;;;;;5119516;27;20092;-73
2022/12/28 11:28:11;;;;;;;4.95;2.90;;;8.80;99.90;;;;;;5138028;27;20039;-73
2022/12/28 11:30:37;;;;;;;4.72;2.65;;;8.70;99.90;;;;;;5138160;27;20047;-76
2022/12/28 11:33:05;;;;;;;3.42;2.80;;;8.80;99.90;;;;;;5137579;27;20036;-74
2022/12/28 11:35:37;;;;;;;3.70;2.80;;;8.80;99.90;;;;;;5137572;27;20050;-74
2022/12/28 11:38:05;;;;;;;3.88;2.88;;;8.80;99.90;;;;;;5118966;27;20070;-74
2022/12/28 11:40:43;;;;;;;3.67;2.33;;;8.80;99.90;;;;;;5137529;27;20038;-73
2022/12/28 11:43:27;;;;;;;3.97;2.88;;;8.80;99.90;;;;;;5102275;27;20047;-74
2022/12/28 11:45:58;;;;;;;5.00;2.80;;;8.80;99.90;;;;;;5119249;27;20074;-73
2022/12/28 11:48:42;;;;;;;3.63;2.65;;;8.70;99.90;;;;;;5137159;27;20503;-73
2022/12/28 11:51:23;;;;;;;2.67;2.22;;;8.80;99.90;;;;;;5118150;27;20058;-73
2022/12/28 11:53:53;;;;;;;2.88;1.70;;;8.80;99.90;;;;;;5136554;27;20055;-73
2022/12/28 11:56:43;;;;;;;2.67;1.60;;;8.70;99.90;;;;;;5136616;27;20047;-73
2022/12/28 11:59:30;;;;;;;2.85;1.50;;;8.70;99.90;;;;;;5118766;27;20047;-73
2022/12/28 12:01:59;;;;;;;2.65;1.45;;;8.80;99.90;;;;;;5134353;27;20050;-72
2022/12/28 12:04:30;;;;;;;1.83;1.20;;;8.80;99.90;;;;;;5135981;27;20521;-73
2022/12/28 12:07:00;;;;;;;2.78;1.42;;;8.90;99.90;;;;;;5136122;27;20039;-74
2022/12/28 12:09:28;;;;;;;1.65;1.10;;;8.80;99.90;;;;;;5114648;27;20047;-74
2022/12/28 12:11:58;;;;;;;1.80;1.33;;;8.70;99.90;;;;;;5117388;27;20039;-75
2022/12/28 12:14:31;;;;;;;1.42;0.90;;;8.70;99.90;;;;;;5131298;27;20443;-73
2022/12/28 12:17:03;;;;;;;1.83;1.00;;;8.70;99.90;;;;;;5115890;27;20131;-74
2022/12/28 12:19:34;;;;;;;1.30;0.95;;;8.70;99.90;;;;;;5130436;27;20031;-75
2022/12/28 12:22:03;;;;;;;1.70;1.15;;;8.80;99.90;;;;;;5134430;27;20058;-74
2022/12/28 12:24:36;;;;;;;1.63;1.10;;;8.80;99.90;;;;;;5097308;27;20072;-73
2022/12/28 12:27:03;;;;;;;;;;;8.70;99.90;;;;;;5117035;27;20401;-73
2022/12/28 12:30:00;;;;;;;1.88;1.10;;;8.80;99.90;;;;;;5115685;27;20371;-74
2022/12/28 12:32:37;;;;;;;1.70;1.10;;;8.70;99.90;;;;;;5096910;27;20401;-74
2022/12/28 12:35:05;;;;;;;1.85;1.10;;;8.70;99.90;;;;;;5134679;27;20039;-74
2022/12/28 12:37:58;;;;;;;1.73;1.13;;;8.80;99.90;;;;;;5134010;27;20521;-73
2022/12/28 12:40:54;;;;;;;2.10;1.33;;;8.80;99.90;;;;;;5116271;27;20122;-74
2022/12/28 12:43:39;;;;;;;1.90;1.40;;;8.80;99.90;;;;;;5115160;27;20047;-73
2022/12/28 12:46:23;;;;;;;2.65;1.40;;;8.70;99.90;;;;;;5098693;27;20045;-74
2022/12/28 12:48:58;;;;;;;1.95;1.38;;;8.80;99.90;;;;;;5096573;27;20051;-73
2022/12/28 12:51:33;;;;;;;1.77;1.15;;;8.70;99.90;;;;;;5099215;27;20059;-73
2022/12/28 12:54:02;;;;;;;2.15;1.30;;;8.70;99.90;;;;;;5133547;27;20057;-73
2022/12/28 12:56:57;;;;;;;1.70;1.30;;;8.80;99.90;;;;;;5113468;27;20050;-75
2022/12/28 12:59:43;;;;;;;1.75;1.20;;;8.80;99.90;;;;;;5098427;27;20061;-73
2022/12/28 13:02:28;;;;;;;2.05;1.15;;;8.80;99.90;;;;;;5113583;27;20043;-74
2022/12/28 13:04:53;;;;;;;1.92;1.30;;;8.70;99.90;;;;;;5114058;27;20394;-74
2022/12/28 13:07:23;;;;;;;1.70;1.17;;;8.80;99.90;;;;;;5114842;27;20046;-74
2022/12/28 13:09:51;;;;;;;1.58;1.13;;;8.80;99.90;;;;;;5131727;27;20490;-74
2022/12/28 13:12:18;;;;;;;3.45;1.20;;;8.80;99.90;;;;;;5115621;27;20039;-73
2022/12/28 13:14:56;;;;;;;2.08;1.20;;;8.80;99.90;;;;;;5115241;27;20050;-74
2022/12/28 13:17:22;;;;;;;1.20;1.00;;;8.70;99.90;;;;;;5133645;27;20510;-73
2022/12/28 13:19:48;;;;;;;1.58;1.13;;;8.80;99.90;;;;;;5115632;27;20047;-72
2022/12/28 13:22:32;;;;;;;1.65;1.20;;;8.80;99.90;;;;;;5115374;27;20043;-73
2022/12/28 13:24:58;;;;;;;1.70;1.23;;;8.90;99.90;;;;;;5114387;27;20122;-74
2022/12/28 13:27:30;;;;;;;1.50;1.00;;;8.80;99.90;;;;;;5114694;27;20618;-74
2022/12/28 13:29:57;;;;;;;1.20;1.00;;;8.80;99.90;;;;;;5133536;27;20054;-75
2022/12/28 13:32:24;;;;;;;1.85;1.00;;;8.80;99.90;;;;;;5115390;27;20051;-73
2022/12/28 13:34:49;;;;;;;1.60;1.23;;;8.80;99.90;;;;;;5133375;27;20493;-74
2022/12/28 13:37:16;;;;;;;1.35;0.90;;;8.70;99.90;;;;;;5114784;27;20126;-74
2022/12/28 13:39:41;;;;;;;2.22;0.90;;;8.70;99.90;;;;;;5132679;27;20050;-74
2022/12/28 13:42:34;;;;;;;1.50;1.00;;;8.70;99.90;;;;;;5114980;27;20039;-74